sensor_id;sensor_type;location;lat;lon;timestamp;pressure;altitude;pressure_sealevel;temperature;humidity
69239;BME280;56349;51.816;-0.026;2023-02-18T00:00:07;101607.03;;;25.32;30.98
69239;BME280;56349;51.816;-0.026;2023-02-18T00:02:31;101605.10;;;25.13;31.16
69239;BME280;56349;51.816;-0.026;2023-02-18T00:04:56;101600.48;;;24.89;31.42
69239;BME280;56349;51.816;-0.026;2023-02-18T00:07:22;101595.35;;;24.89;31.67
69239;BME280;56349;51.816;-0.026;2023-02-18T00:09:48;101593.80;;;24.67;31.92
69239;BME280;56349;51.816;-0.026;2023-02-18T00:12:14;101595.97;;;24.26;32.12
69239;BME280;56349;51.816;-0.026;2023-02-18T00:14:40;101589.69;;;24.52;32.36
69239;BME280;56349;51.816;-0.026;2023-02-18T00:17:06;101583.25;;;24.33;32.56
69239;BME280;56349;51.816;-0.026;2023-02-18T00:19:31;101584.43;;;24.13;32.77
69239;BME280;56349;51.816;-0.026;2023-02-18T00:21:58;101583.33;;;23.95;32.99
69239;BME280;56349;51.816;-0.026;2023-02-18T00:24:24;101574.01;;;23.79;33.17
69239;BME280;56349;51.816;-0.026;2023-02-18T00:26:50;101577.08;;;23.63;33.35
69239;BME280;56349;51.816;-0.026;2023-02-18T00:29:15;101573.92;;;23.98;33.54
69239;BME280;56349;51.816;-0.026;2023-02-18T00:31:41;101576.93;;;23.63;33.71
69239;BME280;56349;51.816;-0.026;2023-02-18T00:34:06;101575.75;;;23.48;33.90
69239;BME280;56349;51.816;-0.026;2023-02-18T00:36:31;101573.39;;;23.35;34.03
69239;BME280;56349;51.816;-0.026;2023-02-18T00:38:59;101577.53;;;23.46;34.17
69239;BME280;56349;51.816;-0.026;2023-02-18T00:41:24;101568.74;;;23.34;34.32
69239;BME280;56349;51.816;-0.026;2023-02-18T00:43:49;101573.50;;;23.22;34.46
69239;BME280;56349;51.816;-0.026;2023-02-18T00:46:14;101564.16;;;23.11;34.62
69239;BME280;56349;51.816;-0.026;2023-02-18T00:48:40;101556.55;;;23.00;34.71
69239;BME280;56349;51.816;-0.026;2023-02-18T00:51:06;101553.00;;;22.90;34.87
69239;BME280;56349;51.816;-0.026;2023-02-18T00:53:31;101551.13;;;23.07;35.01
69239;BME280;56349;51.816;-0.026;2023-02-18T00:55:57;101556.80;;;22.71;35.11
69239;BME280;56349;51.816;-0.026;2023-02-18T00:58:23;101562.64;;;22.62;35.21
69239;BME280;56349;51.816;-0.026;2023-02-18T01:00:49;101560.22;;;22.55;35.32
69239;BME280;56349;51.816;-0.026;2023-02-18T01:03:14;101555.16;;;22.47;35.39
69239;BME280;56349;51.816;-0.026;2023-02-18T01:05:41;101552.11;;;22.39;35.46
69239;BME280;56349;51.816;-0.026;2023-02-18T01:08:07;101543.85;;;22.32;35.56
69239;BME280;56349;51.816;-0.026;2023-02-18T01:10:31;101535.86;;;22.51;35.68
69239;BME280;56349;51.816;-0.026;2023-02-18T01:12:56;101546.31;;;22.42;35.78
69239;BME280;56349;51.816;-0.026;2023-02-18T01:15:21;101546.63;;;22.57;35.84
69239;BME280;56349;51.816;-0.026;2023-02-18T01:17:46;101552.69;;;22.51;35.97
69239;BME280;56349;51.816;-0.026;2023-02-18T01:20:14;101548.16;;;22.22;35.99
69239;BME280;56349;51.816;-0.026;2023-02-18T01:22:39;101546.23;;;22.39;36.09
69239;BME280;56349;51.816;-0.026;2023-02-18T01:25:04;101552.43;;;22.34;36.16
69239;BME280;56349;51.816;-0.026;2023-02-18T01:27:29;101546.01;;;22.29;36.22
69239;BME280;56349;51.816;-0.026;2023-02-18T01:29:55;101549.70;;;22.22;36.29
69239;BME280;56349;51.816;-0.026;2023-02-18T01:32:22;101543.57;;;21.95;36.34
69239;BME280;56349;51.816;-0.026;2023-02-18T01:34:47;101543.84;;;21.91;36.42
69239;BME280;56349;51.816;-0.026;2023-02-18T01:37:13;101542.86;;;22.08;36.44
69239;BME280;56349;51.816;-0.026;2023-02-18T01:39:38;101548.74;;;22.02;36.51
69239;BME280;56349;51.816;-0.026;2023-02-18T01:42:03;101544.51;;;22.19;36.55
69239;BME280;56349;51.816;-0.026;2023-02-18T01:44:29;101541.27;;;21.92;36.61
69239;BME280;56349;51.816;-0.026;2023-02-18T01:46:54;101543.20;;;21.85;36.68
69239;BME280;56349;51.816;-0.026;2023-02-18T01:49:22;101538.62;;;21.81;36.75
69239;BME280;56349;51.816;-0.026;2023-02-18T01:51:46;101527.88;;;21.75;36.78
69239;BME280;56349;51.816;-0.026;2023-02-18T01:54:13;101533.14;;;21.71;36.83
69239;BME280;56349;51.816;-0.026;2023-02-18T01:56:38;101533.15;;;21.67;36.91
69239;BME280;56349;51.816;-0.026;2023-02-18T01:59:03;101528.46;;;21.85;36.94
69239;BME280;56349;51.816;-0.026;2023-02-18T02:01:27;101531.73;;;21.82;36.94
69239;BME280;56349;51.816;-0.026;2023-02-18T02:03:52;101542.42;;;21.76;36.94
69239;BME280;56349;51.816;-0.026;2023-02-18T02:06:19;101547.11;;;21.52;37.05
69239;BME280;56349;51.816;-0.026;2023-02-18T02:08:44;101541.62;;;21.49;37.04
69239;BME280;56349;51.816;-0.026;2023-02-18T02:11:18;101533.15;;;21.46;37.10
69239;BME280;56349;51.816;-0.026;2023-02-18T02:13:43;101534.69;;;21.45;37.10
69239;BME280;56349;51.816;-0.026;2023-02-18T02:16:04;101515.78;;;21.66;37.10
69239;BME280;56349;51.816;-0.026;2023-02-18T02:18:35;101506.01;;;21.41;37.04
69239;BME280;56349;51.816;-0.026;2023-02-18T02:25:58;101511.41;;;21.51;37.20
69239;BME280;56349;51.816;-0.026;2023-02-18T02:30:43;101497.66;;;21.43;37.30
69239;BME280;56349;51.816;-0.026;2023-02-18T02:33:12;101493.63;;;21.17;37.36
69239;BME280;56349;51.816;-0.026;2023-02-18T02:35:25;101489.33;;;21.37;37.40
69239;BME280;56349;51.816;-0.026;2023-02-18T02:37:57;101476.20;;;21.63;37.44
69239;BME280;56349;51.816;-0.026;2023-02-18T02:40:23;101472.54;;;21.62;37.48
69239;BME280;56349;51.816;-0.026;2023-02-18T02:42:48;101469.69;;;21.33;37.52
69239;BME280;56349;51.816;-0.026;2023-02-18T02:45:13;101470.63;;;21.29;37.51
69239;BME280;56349;51.816;-0.026;2023-02-18T02:47:37;101476.05;;;21.51;37.47
69239;BME280;56349;51.816;-0.026;2023-02-18T02:50:02;101466.57;;;21.22;37.51
69239;BME280;56349;51.816;-0.026;2023-02-18T02:52:29;101459.48;;;21.47;37.57
69239;BME280;56349;51.816;-0.026;2023-02-18T02:54:51;101457.09;;;21.19;37.61
69239;BME280;56349;51.816;-0.026;2023-02-18T02:59:43;101447.40;;;21.43;37.59
69239;BME280;56349;51.816;-0.026;2023-02-18T03:02:20;101449.88;;;21.14;37.63
69239;BME280;56349;51.816;-0.026;2023-02-18T03:04:49;101444.77;;;21.10;37.66
69239;BME280;56349;51.816;-0.026;2023-02-18T03:07:10;101448.42;;;20.85;37.66
69239;BME280;56349;51.816;-0.026;2023-02-18T03:09:30;101444.86;;;21.33;37.61
69239;BME280;56349;51.816;-0.026;2023-02-18T03:11:56;101433.76;;;21.31;37.69
69239;BME280;56349;51.816;-0.026;2023-02-18T03:14:20;101435.03;;;21.03;37.66
69239;BME280;56349;51.816;-0.026;2023-02-18T03:16:45;101445.05;;;20.77;37.67
69239;BME280;56349;51.816;-0.026;2023-02-18T03:19:11;101443.01;;;21.24;37.74
69239;BME280;56349;51.816;-0.026;2023-02-18T03:21:36;101445.75;;;20.95;37.73
69239;BME280;56349;51.816;-0.026;2023-02-18T03:24:01;101443.58;;;21.20;37.72
69239;BME280;56349;51.816;-0.026;2023-02-18T03:26:24;101438.65;;;21.18;37.74
69239;BME280;56349;51.816;-0.026;2023-02-18T03:28:50;101432.92;;;20.89;37.74
69239;BME280;56349;51.816;-0.026;2023-02-18T03:31:18;101434.58;;;20.89;37.76
69239;BME280;56349;51.816;-0.026;2023-02-18T03:33:45;101429.96;;;20.87;37.77
69239;BME280;56349;51.816;-0.026;2023-02-18T03:36:08;101423.66;;;21.10;37.71
69239;BME280;56349;51.816;-0.026;2023-02-18T03:38:37;101405.82;;;21.09;37.77
69239;BME280;56349;51.816;-0.026;2023-02-18T03:40:59;101407.26;;;21.06;37.85
69239;BME280;56349;51.816;-0.026;2023-02-18T03:43:25;101403.94;;;21.05;37.83
69239;BME280;56349;51.816;-0.026;2023-02-18T03:45:51;101400.51;;;20.77;37.86
69239;BME280;56349;51.816;-0.026;2023-02-18T03:48:16;101401.94;;;20.74;37.87
69239;BME280;56349;51.816;-0.026;2023-02-18T03:50:42;101399.89;;;21.00;37.81
69239;BME280;56349;51.816;-0.026;2023-02-18T03:53:08;101402.06;;;20.98;37.85
69239;BME280;56349;51.816;-0.026;2023-02-18T03:55:34;101401.73;;;20.96;37.88
69239;BME280;56349;51.816;-0.026;2023-02-18T03:58:00;101405.56;;;20.95;37.88
69239;BME280;56349;51.816;-0.026;2023-02-18T04:00:26;101399.92;;;20.68;37.84
69239;BME280;56349;51.816;-0.026;2023-02-18T04:02:52;101396.23;;;20.93;37.85
69239;BME280;56349;51.816;-0.026;2023-02-18T04:05:18;101396.97;;;20.63;37.91
69239;BME280;56349;51.816;-0.026;2023-02-18T04:07:44;101394.76;;;20.88;37.95
69239;BME280;56349;51.816;-0.026;2023-02-18T04:10:10;101394.88;;;20.84;37.99
69239;BME280;56349;51.816;-0.026;2023-02-18T04:12:35;101396.65;;;20.82;37.96
69239;BME280;56349;51.816;-0.026;2023-02-18T04:15:01;101391.72;;;20.80;37.97
69239;BME280;56349;51.816;-0.026;2023-02-18T04:17:27;101390.99;;;20.77;37.96
69239;BME280;56349;51.816;-0.026;2023-02-18T04:19:52;101391.32;;;20.75;37.97
69239;BME280;56349;51.816;-0.026;2023-02-18T04:22:18;101386.24;;;20.74;38.02
69239;BME280;56349;51.816;-0.026;2023-02-18T04:24:44;101384.41;;;20.72;38.05
69239;BME280;56349;51.816;-0.026;2023-02-18T04:27:10;101371.12;;;20.71;38.05
69239;BME280;56349;51.816;-0.026;2023-02-18T04:29:36;101373.89;;;20.71;38.10
69239;BME280;56349;51.816;-0.026;2023-02-18T04:32:03;101382.42;;;20.71;38.16
69239;BME280;56349;51.816;-0.026;2023-02-18T04:34:27;101375.78;;;20.49;38.21
69239;BME280;56349;51.816;-0.026;2023-02-18T04:36:53;101376.16;;;20.85;38.19
69239;BME280;56349;51.816;-0.026;2023-02-18T04:39:19;101376.57;;;21.02;38.12
69239;BME280;56349;51.816;-0.026;2023-02-18T04:41:45;101362.76;;;20.94;37.94
69239;BME280;56349;51.816;-0.026;2023-02-18T04:44:11;101364.86;;;21.18;37.68
69239;BME280;56349;51.816;-0.026;2023-02-18T04:46:37;101374.10;;;21.40;37.45
69239;BME280;56349;51.816;-0.026;2023-02-18T04:49:03;101377.91;;;21.60;37.13
69239;BME280;56349;51.816;-0.026;2023-02-18T04:51:29;101376.18;;;21.52;36.91
69239;BME280;56349;51.816;-0.026;2023-02-18T04:53:55;101377.47;;;21.62;36.72
69239;BME280;56349;51.816;-0.026;2023-02-18T04:56:21;101372.91;;;21.91;36.57
69239;BME280;56349;51.816;-0.026;2023-02-18T04:58:47;101364.26;;;21.70;36.45
69239;BME280;56349;51.816;-0.026;2023-02-18T05:01:12;101364.49;;;21.70;36.38
69239;BME280;56349;51.816;-0.026;2023-02-18T05:03:38;101360.80;;;21.68;36.33
69239;BME280;56349;51.816;-0.026;2023-02-18T05:06:04;101352.49;;;21.62;36.27
69239;BME280;56349;51.816;-0.026;2023-02-18T05:08:29;101353.17;;;21.57;36.42
69239;BME280;56349;51.816;-0.026;2023-02-18T05:10:54;101352.12;;;21.53;36.56
69239;BME280;56349;51.816;-0.026;2023-02-18T05:13:20;101349.15;;;21.70;36.63
69239;BME280;56349;51.816;-0.026;2023-02-18T05:15:46;101347.57;;;21.44;36.91
69239;BME280;56349;51.816;-0.026;2023-02-18T05:18:12;101351.77;;;21.62;37.05
69239;BME280;56349;51.816;-0.026;2023-02-18T05:20:38;101343.11;;;21.38;37.27
69239;BME280;56349;51.816;-0.026;2023-02-18T05:23:04;101346.56;;;21.59;37.44
69239;BME280;56349;51.816;-0.026;2023-02-18T05:25:30;101345.55;;;21.37;37.67
69239;BME280;56349;51.816;-0.026;2023-02-18T05:27:56;101354.85;;;21.87;37.84
69239;BME280;56349;51.816;-0.026;2023-02-18T05:30:22;101360.82;;;21.39;37.96
69239;BME280;56349;51.816;-0.026;2023-02-18T05:32:48;101354.05;;;21.62;38.13
69239;BME280;56349;51.816;-0.026;2023-02-18T05:35:14;101356.57;;;21.64;38.31
69239;BME280;56349;51.816;-0.026;2023-02-18T05:37:40;101355.24;;;21.66;38.46
69239;BME280;56349;51.816;-0.026;2023-02-18T05:40:07;101346.61;;;21.46;38.55
69239;BME280;56349;51.816;-0.026;2023-02-18T05:42:32;101342.80;;;21.52;38.60
69239;BME280;56349;51.816;-0.026;2023-02-18T05:44:58;101339.44;;;21.56;38.66
69239;BME280;56349;51.816;-0.026;2023-02-18T05:47:24;101329.87;;;21.60;38.68
69239;BME280;56349;51.816;-0.026;2023-02-18T05:49:50;101331.66;;;21.87;38.75
69239;BME280;56349;51.816;-0.026;2023-02-18T05:52:16;101328.20;;;21.70;38.65
69239;BME280;56349;51.816;-0.026;2023-02-18T05:54:42;101327.16;;;21.73;38.72
69239;BME280;56349;51.816;-0.026;2023-02-18T05:57:06;101325.32;;;21.79;38.68
69239;BME280;56349;51.816;-0.026;2023-02-18T05:59:33;101326.07;;;22.06;38.76
69239;BME280;56349;51.816;-0.026;2023-02-18T06:01:58;101322.78;;;21.88;38.65
69239;BME280;56349;51.816;-0.026;2023-02-18T06:04:24;101315.65;;;21.91;38.59
69239;BME280;56349;51.816;-0.026;2023-02-18T06:06:50;101306.92;;;22.19;38.61
69239;BME280;56349;51.816;-0.026;2023-02-18T06:09:16;101310.66;;;22.01;38.58
69239;BME280;56349;51.816;-0.026;2023-02-18T06:11:42;101310.90;;;21.84;38.58
69239;BME280;56349;51.816;-0.026;2023-02-18T06:14:08;101310.09;;;22.09;38.50
69239;BME280;56349;51.816;-0.026;2023-02-18T06:16:34;101312.58;;;22.13;38.52
69239;BME280;56349;51.816;-0.026;2023-02-18T06:19:00;101302.21;;;22.38;38.59
69239;BME280;56349;51.816;-0.026;2023-02-18T06:21:26;101305.70;;;22.20;38.49
69239;BME280;56349;51.816;-0.026;2023-02-18T06:23:52;101302.84;;;22.24;38.51
69239;BME280;56349;51.816;-0.026;2023-02-18T06:26:18;101298.12;;;22.27;38.43
69239;BME280;56349;51.816;-0.026;2023-02-18T06:28:44;101304.17;;;22.29;38.34
69239;BME280;56349;51.816;-0.026;2023-02-18T06:31:10;101316.39;;;22.32;38.33
69239;BME280;56349;51.816;-0.026;2023-02-18T06:33:36;101314.37;;;22.34;38.26
69239;BME280;56349;51.816;-0.026;2023-02-18T06:36:05;101317.26;;;22.35;38.17
69239;BME280;56349;51.816;-0.026;2023-02-18T06:38:28;101306.91;;;22.39;38.04
69239;BME280;56349;51.816;-0.026;2023-02-18T06:40:53;101310.33;;;21.93;37.79
69239;BME280;56349;51.816;-0.026;2023-02-18T06:43:18;101323.52;;;22.42;37.70
69239;BME280;56349;51.816;-0.026;2023-02-18T06:45:43;101322.50;;;22.42;37.73
69239;BME280;56349;51.816;-0.026;2023-02-18T06:48:08;101323.90;;;22.42;37.73
69239;BME280;56349;51.816;-0.026;2023-02-18T06:50:34;101325.04;;;22.40;37.58
69239;BME280;56349;51.816;-0.026;2023-02-18T06:53:00;101323.56;;;22.39;37.62
69239;BME280;56349;51.816;-0.026;2023-02-18T06:55:26;101331.19;;;22.37;37.54
69239;BME280;56349;51.816;-0.026;2023-02-18T06:57:52;101331.48;;;22.35;37.35
69239;BME280;56349;51.816;-0.026;2023-02-18T07:00:23;101337.72;;;22.34;37.37
69239;BME280;56349;51.816;-0.026;2023-02-18T07:02:43;101323.97;;;22.33;37.28
69239;BME280;56349;51.816;-0.026;2023-02-18T07:05:09;101323.55;;;22.31;37.29
69239;BME280;56349;51.816;-0.026;2023-02-18T07:07:35;101329.79;;;22.06;37.29
69239;BME280;56349;51.816;-0.026;2023-02-18T07:10:01;101330.17;;;22.25;37.23
69239;BME280;56349;51.816;-0.026;2023-02-18T07:12:27;101332.61;;;22.22;37.27
69239;BME280;56349;51.816;-0.026;2023-02-18T07:14:53;101322.34;;;22.21;37.19
69239;BME280;56349;51.816;-0.026;2023-02-18T07:17:18;101321.66;;;22.42;37.03
69239;BME280;56349;51.816;-0.026;2023-02-18T07:19:43;101321.96;;;22.17;36.95
69239;BME280;56349;51.816;-0.026;2023-02-18T07:22:09;101325.39;;;22.14;36.78
69239;BME280;56349;51.816;-0.026;2023-02-18T07:24:35;101323.04;;;22.11;36.63
69239;BME280;56349;51.816;-0.026;2023-02-18T07:27:01;101321.69;;;22.29;36.56
69239;BME280;56349;51.816;-0.026;2023-02-18T07:29:27;101309.99;;;22.06;36.64
69239;BME280;56349;51.816;-0.026;2023-02-18T07:31:53;101315.31;;;22.07;36.73
69239;BME280;56349;51.816;-0.026;2023-02-18T07:34:19;101311.95;;;22.07;36.61
69239;BME280;56349;51.816;-0.026;2023-02-18T07:36:45;101314.08;;;22.08;36.72
69239;BME280;56349;51.816;-0.026;2023-02-18T07:39:10;101324.29;;;22.15;36.87
69239;BME280;56349;51.816;-0.026;2023-02-18T07:41:36;101324.28;;;22.28;37.01
69239;BME280;56349;51.816;-0.026;2023-02-18T07:44:01;101334.17;;;22.01;37.04
69239;BME280;56349;51.816;-0.026;2023-02-18T07:46:27;101354.38;;;22.29;36.82
69239;BME280;56349;51.816;-0.026;2023-02-18T07:48:57;101348.36;;;22.56;36.62
69239;BME280;56349;51.816;-0.026;2023-02-18T07:51:20;101354.67;;;22.90;36.38
69239;BME280;56349;51.816;-0.026;2023-02-18T07:53:45;101355.87;;;23.04;36.04
69239;BME280;56349;51.816;-0.026;2023-02-18T07:56:11;101347.43;;;23.61;35.67
69239;BME280;56349;51.816;-0.026;2023-02-18T07:58:37;101347.03;;;23.71;35.26
69239;BME280;56349;51.816;-0.026;2023-02-18T08:01:04;101338.96;;;23.77;34.88
69239;BME280;56349;51.816;-0.026;2023-02-18T08:03:29;101349.41;;;23.85;34.51
69239;BME280;56349;51.816;-0.026;2023-02-18T08:05:53;101357.60;;;24.36;34.00
69239;BME280;56349;51.816;-0.026;2023-02-18T08:08:20;101357.51;;;24.43;33.73
69239;BME280;56349;51.816;-0.026;2023-02-18T08:10:44;101359.73;;;24.49;33.38
69239;BME280;56349;51.816;-0.026;2023-02-18T08:13:10;101368.50;;;24.76;32.97
69239;BME280;56349;51.816;-0.026;2023-02-18T08:15:36;101361.79;;;25.00;32.69
69239;BME280;56349;51.816;-0.026;2023-02-18T08:18:03;101360.37;;;24.97;32.41
69239;BME280;56349;51.816;-0.026;2023-02-18T08:20:29;101368.00;;;24.96;32.13
69239;BME280;56349;51.816;-0.026;2023-02-18T08:22:55;101372.49;;;25.16;31.87
69239;BME280;56349;51.816;-0.026;2023-02-18T08:25:21;101373.29;;;25.35;31.60
69239;BME280;56349;51.816;-0.026;2023-02-18T08:27:47;101389.98;;;25.54;31.25
69239;BME280;56349;51.816;-0.026;2023-02-18T08:30:13;101387.54;;;25.72;31.07
69239;BME280;56349;51.816;-0.026;2023-02-18T08:32:38;101381.74;;;25.89;30.83
69239;BME280;56349;51.816;-0.026;2023-02-18T08:35:05;101382.87;;;26.04;30.57
69239;BME280;56349;51.816;-0.026;2023-02-18T08:37:31;101379.06;;;25.96;30.39
69239;BME280;56349;51.816;-0.026;2023-02-18T08:39:55;101383.44;;;25.82;30.23
69239;BME280;56349;51.816;-0.026;2023-02-18T08:42:21;101396.98;;;25.94;30.03
69239;BME280;56349;51.816;-0.026;2023-02-18T08:44:47;101399.92;;;26.08;29.89
69239;BME280;56349;51.816;-0.026;2023-02-18T08:47:13;101399.37;;;26.45;29.69
69239;BME280;56349;51.816;-0.026;2023-02-18T08:49:39;101401.06;;;26.29;29.53
69239;BME280;56349;51.816;-0.026;2023-02-18T08:52:05;101405.86;;;26.39;29.35
69239;BME280;56349;51.816;-0.026;2023-02-18T08:54:31;101407.33;;;26.53;29.20
69239;BME280;56349;51.816;-0.026;2023-02-18T08:56:57;101399.81;;;26.68;29.19
69239;BME280;56349;51.816;-0.026;2023-02-18T08:59:23;101399.42;;;26.79;29.15
69239;BME280;56349;51.816;-0.026;2023-02-18T09:01:49;101404.19;;;26.86;29.17
69239;BME280;56349;51.816;-0.026;2023-02-18T09:04:15;101401.06;;;26.46;29.23
69239;BME280;56349;51.816;-0.026;2023-02-18T09:06:40;101404.46;;;27.06;29.25
69239;BME280;56349;51.816;-0.026;2023-02-18T09:09:06;101409.30;;;27.17;29.16
69239;BME280;56349;51.816;-0.026;2023-02-18T09:11:32;101411.38;;;27.01;29.01
69239;BME280;56349;51.816;-0.026;2023-02-18T09:13:57;101407.66;;;27.04;28.94
69239;BME280;56349;51.816;-0.026;2023-02-18T09:16:23;101414.99;;;27.28;28.89
69239;BME280;56349;51.816;-0.026;2023-02-18T09:18:49;101421.04;;;27.08;28.77
69239;BME280;56349;51.816;-0.026;2023-02-18T09:21:16;101424.58;;;26.85;28.64
69239;BME280;56349;51.816;-0.026;2023-02-18T09:23:41;101423.83;;;27.15;28.56
69239;BME280;56349;51.816;-0.026;2023-02-18T09:26:08;101424.99;;;27.17;28.49
69239;BME280;56349;51.816;-0.026;2023-02-18T09:28:32;101425.60;;;26.91;28.42
69239;BME280;56349;51.816;-0.026;2023-02-18T09:31:03;101424.67;;;27.20;28.37
69239;BME280;56349;51.816;-0.026;2023-02-18T09:33:23;101426.97;;;27.40;28.31
69239;BME280;56349;51.816;-0.026;2023-02-18T09:35:49;101432.87;;;26.93;28.23
69239;BME280;56349;51.816;-0.026;2023-02-18T09:38:16;101431.81;;;27.22;28.15
69239;BME280;56349;51.816;-0.026;2023-02-18T09:40:43;101423.73;;;26.98;28.07
69239;BME280;56349;51.816;-0.026;2023-02-18T09:43:06;101425.49;;;27.25;28.03
69239;BME280;56349;51.816;-0.026;2023-02-18T09:45:32;101424.55;;;26.98;28.00
69239;BME280;56349;51.816;-0.026;2023-02-18T09:47:58;101427.38;;;26.98;27.98
69239;BME280;56349;51.816;-0.026;2023-02-18T09:50:25;101430.76;;;27.24;27.93
69239;BME280;56349;51.816;-0.026;2023-02-18T09:52:48;101427.84;;;27.22;27.93
69239;BME280;56349;51.816;-0.026;2023-02-18T09:55:21;101424.11;;;27.23;27.91
69239;BME280;56349;51.816;-0.026;2023-02-18T09:57:42;101428.37;;;27.24;27.89
69239;BME280;56349;51.816;-0.026;2023-02-18T10:00:13;101437.57;;;27.25;27.85
69239;BME280;56349;51.816;-0.026;2023-02-18T10:02:33;101438.60;;;26.97;27.82
69239;BME280;56349;51.816;-0.026;2023-02-18T10:04:57;101449.36;;;26.99;27.79
69239;BME280;56349;51.816;-0.026;2023-02-18T10:07:25;101450.91;;;27.01;27.73
69239;BME280;56349;51.816;-0.026;2023-02-18T10:09:50;101451.76;;;27.01;27.71
69239;BME280;56349;51.816;-0.026;2023-02-18T10:12:16;101449.20;;;27.00;27.69
69239;BME280;56349;51.816;-0.026;2023-02-18T10:14:39;101443.12;;;27.27;27.65
69239;BME280;56349;51.816;-0.026;2023-02-18T10:17:05;101451.00;;;26.99;27.64
69239;BME280;56349;51.816;-0.026;2023-02-18T10:19:33;101451.47;;;26.99;27.55
69239;BME280;56349;51.816;-0.026;2023-02-18T10:21:56;101452.84;;;26.99;27.57
69239;BME280;56349;51.816;-0.026;2023-02-18T10:24:27;101454.45;;;27.28;27.59
69239;BME280;56349;51.816;-0.026;2023-02-18T10:26:47;101463.49;;;27.04;27.58
69239;BME280;56349;51.816;-0.026;2023-02-18T10:29:14;101465.34;;;27.09;27.53
69239;BME280;56349;51.816;-0.026;2023-02-18T10:31:43;101467.56;;;27.10;27.52
69239;BME280;56349;51.816;-0.026;2023-02-18T10:34:10;101468.53;;;27.12;27.49
69239;BME280;56349;51.816;-0.026;2023-02-18T10:36:32;101461.17;;;27.12;27.50
69239;BME280;56349;51.816;-0.026;2023-02-18T10:39:02;101460.67;;;27.13;27.50
69239;BME280;56349;51.816;-0.026;2023-02-18T10:41:25;101462.35;;;27.18;27.46
69239;BME280;56349;51.816;-0.026;2023-02-18T10:43:51;101462.62;;;27.19;27.44
69239;BME280;56349;51.816;-0.026;2023-02-18T10:46:19;101468.89;;;27.23;27.42
69239;BME280;56349;51.816;-0.026;2023-02-18T10:48:46;101469.99;;;27.55;27.36
69239;BME280;56349;51.816;-0.026;2023-02-18T10:51:11;101467.13;;;27.36;27.27
69239;BME280;56349;51.816;-0.026;2023-02-18T10:53:32;101468.29;;;27.43;27.19
69239;BME280;56349;51.816;-0.026;2023-02-18T10:55:54;101463.75;;;27.47;27.17
69239;BME280;56349;51.816;-0.026;2023-02-18T10:58:26;101462.35;;;27.50;27.09
69239;BME280;56349;51.816;-0.026;2023-02-18T11:00:46;101459.33;;;27.50;27.11
69239;BME280;56349;51.816;-0.026;2023-02-18T11:03:15;101457.61;;;27.55;27.06
69239;BME280;56349;51.816;-0.026;2023-02-18T11:05:38;101460.08;;;27.58;27.04
69239;BME280;56349;51.816;-0.026;2023-02-18T11:08:06;101460.91;;;27.56;27.04
69239;BME280;56349;51.816;-0.026;2023-02-18T11:10:30;101464.45;;;27.31;27.05
69239;BME280;56349;51.816;-0.026;2023-02-18T11:12:56;101464.26;;;27.52;27.07
69239;BME280;56349;51.816;-0.026;2023-02-18T11:15:21;101461.41;;;27.55;27.04
69239;BME280;56349;51.816;-0.026;2023-02-18T11:17:47;101460.16;;;27.56;26.99
69239;BME280;56349;51.816;-0.026;2023-02-18T11:22:37;101467.55;;;27.34;26.96
69239;BME280;56349;51.816;-0.026;2023-02-18T11:25:19;101472.14;;;27.57;26.93
69239;BME280;56349;51.816;-0.026;2023-02-18T11:27:31;101472.28;;;27.55;26.92
69239;BME280;56349;51.816;-0.026;2023-02-18T11:29:59;101475.64;;;27.51;26.93
69239;BME280;56349;51.816;-0.026;2023-02-18T11:32:20;101475.88;;;27.48;26.91
69239;BME280;56349;51.816;-0.026;2023-02-18T11:34:45;101471.84;;;27.48;26.87
69239;BME280;56349;51.816;-0.026;2023-02-18T11:37:15;101470.00;;;27.49;26.86
69239;BME280;56349;51.816;-0.026;2023-02-18T11:39:35;101469.94;;;27.50;26.86
69239;BME280;56349;51.816;-0.026;2023-02-18T11:42:03;101469.39;;;27.46;26.85
69239;BME280;56349;51.816;-0.026;2023-02-18T11:44:30;101461.15;;;27.43;26.87
69239;BME280;56349;51.816;-0.026;2023-02-18T11:46:59;101456.40;;;27.38;26.91
69239;BME280;56349;51.816;-0.026;2023-02-18T11:49:22;101449.91;;;27.31;26.91
69239;BME280;56349;51.816;-0.026;2023-02-18T11:51:47;101451.75;;;27.21;27.03
69239;BME280;56349;51.816;-0.026;2023-02-18T11:54:21;101453.47;;;27.09;27.28
69239;BME280;56349;51.816;-0.026;2023-02-18T11:56:37;101452.16;;;27.17;27.45
69239;BME280;56349;51.816;-0.026;2023-02-18T11:59:03;101449.16;;;27.15;27.70
69239;BME280;56349;51.816;-0.026;2023-02-18T12:01:38;101450.66;;;26.92;27.96
69239;BME280;56349;51.816;-0.026;2023-02-18T12:03:59;101454.28;;;26.43;28.25
69239;BME280;56349;51.816;-0.026;2023-02-18T12:06:23;101447.84;;;26.37;28.54
69239;BME280;56349;51.816;-0.026;2023-02-18T12:08:50;101451.50;;;26.10;28.85
69239;BME280;56349;51.816;-0.026;2023-02-18T12:11:16;101454.07;;;26.33;29.15
69239;BME280;56349;51.816;-0.026;2023-02-18T12:13:38;101450.35;;;26.06;29.42
69239;BME280;56349;51.816;-0.026;2023-02-18T12:16:09;101447.49;;;25.59;29.69
69239;BME280;56349;51.816;-0.026;2023-02-18T12:18:35;101447.60;;;25.59;30.05
69239;BME280;56349;51.816;-0.026;2023-02-18T12:21:06;101441.73;;;25.38;30.28
69239;BME280;56349;51.816;-0.026;2023-02-18T12:23:27;101443.68;;;25.78;30.45
69239;BME280;56349;51.816;-0.026;2023-02-18T12:25:53;101447.29;;;25.44;30.67
69239;BME280;56349;51.816;-0.026;2023-02-18T12:28:21;101445.21;;;25.42;30.82
69239;BME280;56349;51.816;-0.026;2023-02-18T12:30:44;101446.78;;;25.24;30.84
69239;BME280;56349;51.816;-0.026;2023-02-18T12:33:07;101441.04;;;25.37;30.78
69239;BME280;56349;51.816;-0.026;2023-02-18T12:35:38;101435.29;;;25.51;30.70
69239;BME280;56349;51.816;-0.026;2023-02-18T12:38:05;101428.78;;;25.89;30.52
69239;BME280;56349;51.816;-0.026;2023-02-18T12:42:52;101428.07;;;25.71;29.98
69239;BME280;56349;51.816;-0.026;2023-02-18T12:45:21;101428.51;;;26.09;29.95